sensor_id;sensor_type;location;lat;lon;timestamp;P1;durP1;ratioP1;P2;durP2;ratioP2
3278;SDS011;1651;50.940;6.888;2022-08-19T00:01:48;13.97;;;10.90;;
3278;SDS011;1651;50.940;6.888;2022-08-19T00:04:15;12.23;;;9.83;;
3278;SDS011;1651;50.940;6.888;2022-08-19T00:06:42;10.33;;;8.97;;
3278;SDS011;1651;50.940;6.888;2022-08-19T00:09:09;14.23;;;8.93;;
3278;SDS011;1651;50.940;6.888;2022-08-19T00:11:35;10.30;;;9.30;;
3278;SDS011;1651;50.940;6.888;2022-08-19T00:14:04;10.10;;;8.93;;
3278;SDS011;1651;50.940;6.888;2022-08-19T00:16:31;11.70;;;9.63;;
3278;SDS011;1651;50.940;6.888;2022-08-19T00:18:57;12.00;;;9.07;;
3278;SDS011;1651;50.940;6.888;2022-08-19T00:21:23;9.47;;;8.50;;
3278;SDS011;1651;50.940;6.888;2022-08-19T00:23:50;11.63;;;9.40;;
3278;SDS011;1651;50.940;6.888;2022-08-19T00:26:16;10.07;;;9.07;;
3278;SDS011;1651;50.940;6.888;2022-08-19T00:28:42;13.43;;;9.50;;
3278;SDS011;1651;50.940;6.888;2022-08-19T00:31:08;9.63;;;7.60;;
3278;SDS011;1651;50.940;6.888;2022-08-19T00:33:36;11.47;;;9.20;;
3278;SDS011;1651;50.940;6.888;2022-08-19T00:36:03;9.93;;;9.00;;
3278;SDS011;1651;50.940;6.888;2022-08-19T00:38:32;10.77;;;9.67;;
3278;SDS011;1651;50.940;6.888;2022-08-19T00:40:59;12.43;;;9.57;;
3278;SDS011;1651;50.940;6.888;2022-08-19T00:43:25;12.80;;;10.83;;
3278;SDS011;1651;50.940;6.888;2022-08-19T00:45:52;10.07;;;9.07;;
3278;SDS011;1651;50.940;6.888;2022-08-19T00:48:21;13.30;;;11.00;;
3278;SDS011;1651;50.940;6.888;2022-08-19T00:50:48;10.87;;;9.80;;
3278;SDS011;1651;50.940;6.888;2022-08-19T00:53:16;11.20;;;10.03;;
3278;SDS011;1651;50.940;6.888;2022-08-19T00:55:48;11.40;;;10.30;;
3278;SDS011;1651;50.940;6.888;2022-08-19T00:58:15;12.10;;;10.20;;
3278;SDS011;1651;50.940;6.888;2022-08-19T01:00:42;11.97;;;10.17;;
3278;SDS011;1651;50.940;6.888;2022-08-19T01:03:10;11.67;;;10.57;;
3278;SDS011;1651;50.940;6.888;2022-08-19T01:05:41;13.53;;;9.47;;
3278;SDS011;1651;50.940;6.888;2022-08-19T01:08:07;11.60;;;10.40;;
3278;SDS011;1651;50.940;6.888;2022-08-19T01:10:36;15.90;;;10.37;;
3278;SDS011;1651;50.940;6.888;2022-08-19T01:13:03;11.03;;;9.93;;
3278;SDS011;1651;50.940;6.888;2022-08-19T01:15:32;13.50;;;10.57;;
3278;SDS011;1651;50.940;6.888;2022-08-19T01:18:05;12.83;;;10.87;;
3278;SDS011;1651;50.940;6.888;2022-08-19T01:20:31;13.83;;;11.03;;
3278;SDS011;1651;50.940;6.888;2022-08-19T01:22:59;10.97;;;8.63;;
3278;SDS011;1651;50.940;6.888;2022-08-19T01:25:38;11.70;;;10.50;;
3278;SDS011;1651;50.940;6.888;2022-08-19T01:28:06;12.23;;;10.93;;
3278;SDS011;1651;50.940;6.888;2022-08-19T01:30:33;11.70;;;9.60;;
3278;SDS011;1651;50.940;6.888;2022-08-19T01:32:59;11.67;;;10.10;;
3278;SDS011;1651;50.940;6.888;2022-08-19T01:35:26;13.07;;;10.80;;
3278;SDS011;1651;50.940;6.888;2022-08-19T01:37:54;12.13;;;10.87;;
3278;SDS011;1651;50.940;6.888;2022-08-19T01:40:21;13.30;;;11.90;;
3278;SDS011;1651;50.940;6.888;2022-08-19T01:42:49;11.57;;;10.40;;
3278;SDS011;1651;50.940;6.888;2022-08-19T01:45:16;11.67;;;9.80;;
3278;SDS011;1651;50.940;6.888;2022-08-19T01:47:43;12.03;;;10.07;;
3278;SDS011;1651;50.940;6.888;2022-08-19T01:50:10;11.67;;;10.03;;
3278;SDS011;1651;50.940;6.888;2022-08-19T01:52:37;14.60;;;10.50;;
3278;SDS011;1651;50.940;6.888;2022-08-19T01:55:04;11.50;;;10.40;;
3278;SDS011;1651;50.940;6.888;2022-08-19T01:57:31;12.53;;;10.90;;
3278;SDS011;1651;50.940;6.888;2022-08-19T01:59:57;11.37;;;10.20;;
3278;SDS011;1651;50.940;6.888;2022-08-19T02:02:25;11.23;;;9.87;;
3278;SDS011;1651;50.940;6.888;2022-08-19T02:04:51;10.63;;;8.60;;
3278;SDS011;1651;50.940;6.888;2022-08-19T02:07:20;10.63;;;9.53;;
3278;SDS011;1651;50.940;6.888;2022-08-19T02:09:46;11.47;;;9.77;;
3278;SDS011;1651;50.940;6.888;2022-08-19T02:12:13;10.90;;;9.50;;
3278;SDS011;1651;50.940;6.888;2022-08-19T02:14:39;10.03;;;9.03;;
3278;SDS011;1651;50.940;6.888;2022-08-19T02:17:05;10.00;;;8.63;;
3278;SDS011;1651;50.940;6.888;2022-08-19T02:19:31;10.53;;;9.43;;
3278;SDS011;1651;50.940;6.888;2022-08-19T02:22:00;11.13;;;8.87;;
3278;SDS011;1651;50.940;6.888;2022-08-19T02:24:26;11.33;;;10.13;;
3278;SDS011;1651;50.940;6.888;2022-08-19T02:26:52;11.23;;;10.13;;
3278;SDS011;1651;50.940;6.888;2022-08-19T02:29:19;13.57;;;9.93;;
3278;SDS011;1651;50.940;6.888;2022-08-19T02:31:45;16.90;;;10.10;;
3278;SDS011;1651;50.940;6.888;2022-08-19T02:34:11;12.50;;;11.20;;
3278;SDS011;1651;50.940;6.888;2022-08-19T02:36:37;11.60;;;10.30;;
3278;SDS011;1651;50.940;6.888;2022-08-19T02:39:03;14.57;;;11.73;;
3278;SDS011;1651;50.940;6.888;2022-08-19T02:41:32;13.70;;;10.80;;
3278;SDS011;1651;50.940;6.888;2022-08-19T02:43:58;14.87;;;10.97;;
3278;SDS011;1651;50.940;6.888;2022-08-19T02:46:27;16.83;;;11.50;;
3278;SDS011;1651;50.940;6.888;2022-08-19T02:48:54;13.23;;;10.70;;
3278;SDS011;1651;50.940;6.888;2022-08-19T02:51:22;15.73;;;13.10;;
3278;SDS011;1651;50.940;6.888;2022-08-19T02:53:49;13.03;;;11.70;;
3278;SDS011;1651;50.940;6.888;2022-08-19T02:56:15;13.30;;;9.87;;
3278;SDS011;1651;50.940;6.888;2022-08-19T02:58:42;13.70;;;11.50;;
3278;SDS011;1651;50.940;6.888;2022-08-19T03:01:08;12.40;;;11.10;;
3278;SDS011;1651;50.940;6.888;2022-08-19T03:03:35;14.03;;;9.47;;
3278;SDS011;1651;50.940;6.888;2022-08-19T03:06:05;16.70;;;12.07;;
3278;SDS011;1651;50.940;6.888;2022-08-19T03:08:31;12.53;;;10.43;;
3278;SDS011;1651;50.940;6.888;2022-08-19T03:10:58;19.53;;;11.90;;
3278;SDS011;1651;50.940;6.888;2022-08-19T03:13:24;15.17;;;11.83;;
3278;SDS011;1651;50.940;6.888;2022-08-19T03:15:50;13.70;;;10.80;;
3278;SDS011;1651;50.940;6.888;2022-08-19T03:18:16;13.80;;;11.00;;
3278;SDS011;1651;50.940;6.888;2022-08-19T03:20:44;11.27;;;10.17;;
3278;SDS011;1651;50.940;6.888;2022-08-19T03:23:10;12.53;;;10.70;;
3278;SDS011;1651;50.940;6.888;2022-08-19T03:25:41;14.80;;;11.63;;
3278;SDS011;1651;50.940;6.888;2022-08-19T03:28:08;12.30;;;11.00;;
3278;SDS011;1651;50.940;6.888;2022-08-19T03:30:34;13.77;;;11.00;;
3278;SDS011;1651;50.940;6.888;2022-08-19T03:33:00;15.33;;;11.53;;
3278;SDS011;1651;50.940;6.888;2022-08-19T03:35:27;15.20;;;12.00;;
3278;SDS011;1651;50.940;6.888;2022-08-19T03:37:52;14.07;;;11.47;;
3278;SDS011;1651;50.940;6.888;2022-08-19T03:40:19;17.00;;;11.90;;
3278;SDS011;1651;50.940;6.888;2022-08-19T03:42:48;12.23;;;10.93;;
3278;SDS011;1651;50.940;6.888;2022-08-19T03:45:15;17.27;;;11.90;;
3278;SDS011;1651;50.940;6.888;2022-08-19T03:47:42;13.07;;;11.60;;
3278;SDS011;1651;50.940;6.888;2022-08-19T03:50:08;15.70;;;13.57;;
3278;SDS011;1651;50.940;6.888;2022-08-19T03:52:34;13.00;;;11.43;;
3278;SDS011;1651;50.940;6.888;2022-08-19T03:55:01;15.30;;;12.83;;
3278;SDS011;1651;50.940;6.888;2022-08-19T03:57:27;12.57;;;11.27;;
3278;SDS011;1651;50.940;6.888;2022-08-19T03:59:54;14.60;;;10.60;;
3278;SDS011;1651;50.940;6.888;2022-08-19T04:02:37;13.40;;;11.23;;
3278;SDS011;1651;50.940;6.888;2022-08-19T04:05:03;17.83;;;11.30;;
3278;SDS011;1651;50.940;6.888;2022-08-19T04:07:37;13.80;;;11.80;;
3278;SDS011;1651;50.940;6.888;2022-08-19T04:44:54;17.10;;;14.40;;
3278;SDS011;1651;50.940;6.888;2022-08-19T04:51:15;19.10;;;15.00;;
3278;SDS011;1651;50.940;6.888;2022-08-19T04:54:13;15.63;;;13.57;;
3278;SDS011;1651;50.940;6.888;2022-08-19T04:56:45;17.07;;;14.30;;
3278;SDS011;1651;50.940;6.888;2022-08-19T04:59:14;16.30;;;14.03;;
3278;SDS011;1651;50.940;6.888;2022-08-19T05:02:00;16.27;;;13.63;;
3278;SDS011;1651;50.940;6.888;2022-08-19T05:04:32;15.10;;;13.40;;
3278;SDS011;1651;50.940;6.888;2022-08-19T05:07:41;16.00;;;13.53;;
3278;SDS011;1651;50.940;6.888;2022-08-19T05:10:37;17.83;;;13.37;;
3278;SDS011;1651;50.940;6.888;2022-08-19T05:23:20;19.00;;;13.80;;
3278;SDS011;1651;50.940;6.888;2022-08-19T05:25:46;24.13;;;16.30;;
3278;SDS011;1651;50.940;6.888;2022-08-19T06:44:06;24.10;;;21.50;;
3278;SDS011;1651;50.940;6.888;2022-08-19T06:46:47;25.67;;;21.30;;
3278;SDS011;1651;50.940;6.888;2022-08-19T06:49:17;22.67;;;19.17;;
3278;SDS011;1651;50.940;6.888;2022-08-19T06:51:50;24.07;;;20.90;;
3278;SDS011;1651;50.940;6.888;2022-08-19T06:54:19;22.07;;;19.67;;
3278;SDS011;1651;50.940;6.888;2022-08-19T06:56:45;23.40;;;20.10;;
3278;SDS011;1651;50.940;6.888;2022-08-19T06:59:15;24.37;;;20.27;;
3278;SDS011;1651;50.940;6.888;2022-08-19T07:01:46;20.73;;;18.53;;
3278;SDS011;1651;50.940;6.888;2022-08-19T07:07:23;21.80;;;19.30;;
3278;SDS011;1651;50.940;6.888;2022-08-19T07:12:35;23.57;;;20.17;;
3278;SDS011;1651;50.940;6.888;2022-08-19T07:15:10;22.50;;;20.07;;
3278;SDS011;1651;50.940;6.888;2022-08-19T07:17:38;27.17;;;22.17;;
3278;SDS011;1651;50.940;6.888;2022-08-19T07:20:13;22.07;;;17.93;;
3278;SDS011;1651;50.940;6.888;2022-08-19T07:22:46;25.30;;;20.07;;
3278;SDS011;1651;50.940;6.888;2022-08-19T08:07:31;31.57;;;24.20;;
3278;SDS011;1651;50.940;6.888;2022-08-19T08:14:02;30.60;;;24.37;;
3278;SDS011;1651;50.940;6.888;2022-08-19T08:26:59;34.13;;;24.80;;
3278;SDS011;1651;50.940;6.888;2022-08-19T09:07:45;23.20;;;20.73;;
3278;SDS011;1651;50.940;6.888;2022-08-19T10:18:53;14.93;;;13.43;;
3278;SDS011;1651;50.940;6.888;2022-08-19T10:23:47;16.43;;;12.90;;
3278;SDS011;1651;50.940;6.888;2022-08-19T10:26:17;13.57;;;12.17;;
3278;SDS011;1651;50.940;6.888;2022-08-19T10:28:43;13.10;;;11.80;;
3278;SDS011;1651;50.940;6.888;2022-08-19T10:31:12;12.77;;;11.47;;
3278;SDS011;1651;50.940;6.888;2022-08-19T10:33:40;15.33;;;12.77;;
3278;SDS011;1651;50.940;6.888;2022-08-19T10:36:08;13.03;;;11.70;;
3278;SDS011;1651;50.940;6.888;2022-08-19T10:38:37;14.30;;;12.27;;
3278;SDS011;1651;50.940;6.888;2022-08-19T10:41:09;15.23;;;12.90;;
3278;SDS011;1651;50.940;6.888;2022-08-19T10:43:39;17.00;;;15.20;;
3278;SDS011;1651;50.940;6.888;2022-08-19T10:46:07;18.90;;;13.97;;
3278;SDS011;1651;50.940;6.888;2022-08-19T10:48:35;15.13;;;13.00;;
3278;SDS011;1651;50.940;6.888;2022-08-19T10:51:04;16.20;;;13.83;;
3278;SDS011;1651;50.940;6.888;2022-08-19T10:53:49;18.73;;;13.80;;
3278;SDS011;1651;50.940;6.888;2022-08-19T10:56:15;17.93;;;14.60;;
3278;SDS011;1651;50.940;6.888;2022-08-19T10:59:00;14.47;;;12.87;;
3278;SDS011;1651;50.940;6.888;2022-08-19T11:01:28;21.30;;;14.20;;
3278;SDS011;1651;50.940;6.888;2022-08-19T11:03:56;15.23;;;12.80;;
3278;SDS011;1651;50.940;6.888;2022-08-19T11:06:23;16.17;;;12.70;;
3278;SDS011;1651;50.940;6.888;2022-08-19T11:08:53;12.80;;;11.40;;
3278;SDS011;1651;50.940;6.888;2022-08-19T11:11:21;13.23;;;11.00;;
3278;SDS011;1651;50.940;6.888;2022-08-19T11:13:48;13.40;;;11.33;;
3278;SDS011;1651;50.940;6.888;2022-08-19T11:16:16;12.73;;;10.47;;
3278;SDS011;1651;50.940;6.888;2022-08-19T11:18:52;13.03;;;10.90;;
3278;SDS011;1651;50.940;6.888;2022-08-19T11:21:25;20.33;;;12.13;;
3278;SDS011;1651;50.940;6.888;2022-08-19T11:23:52;15.13;;;13.33;;
3278;SDS011;1651;50.940;6.888;2022-08-19T11:26:22;11.90;;;10.60;;
3278;SDS011;1651;50.940;6.888;2022-08-19T11:28:49;13.90;;;12.00;;
3278;SDS011;1651;50.940;6.888;2022-08-19T11:31:20;11.00;;;9.90;;
3278;SDS011;1651;50.940;6.888;2022-08-19T11:33:47;11.80;;;9.90;;
3278;SDS011;1651;50.940;6.888;2022-08-19T11:36:18;12.87;;;11.57;;
3278;SDS011;1651;50.940;6.888;2022-08-19T11:38:46;10.77;;;9.13;;
3278;SDS011;1651;50.940;6.888;2022-08-19T11:41:13;11.03;;;9.40;;
3278;SDS011;1651;50.940;6.888;2022-08-19T11:43:40;17.47;;;8.90;;
3278;SDS011;1651;50.940;6.888;2022-08-19T11:46:06;11.87;;;9.60;;
3278;SDS011;1651;50.940;6.888;2022-08-19T11:48:33;10.03;;;9.13;;
3278;SDS011;1651;50.940;6.888;2022-08-19T11:51:02;13.23;;;9.83;;
3278;SDS011;1651;50.940;6.888;2022-08-19T11:53:32;12.23;;;11.00;;
3278;SDS011;1651;50.940;6.888;2022-08-19T11:55:59;9.90;;;9.00;;
3278;SDS011;1651;50.940;6.888;2022-08-19T11:58:25;10.87;;;9.50;;
3278;SDS011;1651;50.940;6.888;2022-08-19T12:00:51;29.17;;;11.20;;
3278;SDS011;1651;50.940;6.888;2022-08-19T12:03:17;10.73;;;9.73;;
3278;SDS011;1651;50.940;6.888;2022-08-19T12:05:44;9.40;;;8.60;;
3278;SDS011;1651;50.940;6.888;2022-08-19T12:08:10;10.67;;;9.60;;
3278;SDS011;1651;50.940;6.888;2022-08-19T12:10:42;10.20;;;9.13;;
3278;SDS011;1651;50.940;6.888;2022-08-19T12:13:10;9.67;;;8.60;;
3278;SDS011;1651;50.940;6.888;2022-08-19T12:15:40;11.00;;;8.40;;
3278;SDS011;1651;50.940;6.888;2022-08-19T12:18:08;11.60;;;9.10;;
3278;SDS011;1651;50.940;6.888;2022-08-19T12:20:37;8.87;;;7.97;;
3278;SDS011;1651;50.940;6.888;2022-08-19T12:23:04;8.60;;;7.60;;
3278;SDS011;1651;50.940;6.888;2022-08-19T12:25:30;9.30;;;8.20;;
3278;SDS011;1651;50.940;6.888;2022-08-19T12:27:56;9.93;;;8.23;;
3278;SDS011;1651;50.940;6.888;2022-08-19T12:30:24;12.23;;;9.73;;
3278;SDS011;1651;50.940;6.888;2022-08-19T12:32:52;10.27;;;8.83;;
3278;SDS011;1651;50.940;6.888;2022-08-19T12:35:18;9.60;;;8.60;;
3278;SDS011;1651;50.940;6.888;2022-08-19T12:37:47;15.63;;;8.60;;
3278;SDS011;1651;50.940;6.888;2022-08-19T12:40:14;13.20;;;9.67;;
3278;SDS011;1651;50.940;6.888;2022-08-19T12:42:43;12.27;;;7.87;;
3278;SDS011;1651;50.940;6.888;2022-08-19T12:45:12;10.60;;;9.43;;
3278;SDS011;1651;50.940;6.888;2022-08-19T12:47:39;11.80;;;9.27;;
3278;SDS011;1651;50.940;6.888;2022-08-19T12:50:05;9.33;;;8.33;;
3278;SDS011;1651;50.940;6.888;2022-08-19T12:52:33;10.23;;;8.50;;
3278;SDS011;1651;50.940;6.888;2022-08-19T12:55:01;10.27;;;8.33;;
3278;SDS011;1651;50.940;6.888;2022-08-19T12:57:27;13.03;;;9.20;;
3278;SDS011;1651;50.940;6.888;2022-08-19T12:59:55;8.80;;;7.70;;
3278;SDS011;1651;50.940;6.888;2022-08-19T13:02:20;11.40;;;8.30;;
3278;SDS011;1651;50.940;6.888;2022-08-19T13:04:47;9.43;;;8.17;;
3278;SDS011;1651;50.940;6.888;2022-08-19T13:07:13;9.00;;;7.90;;
3278;SDS011;1651;50.940;6.888;2022-08-19T13:09:39;10.83;;;8.00;;
3278;SDS011;1651;50.940;6.888;2022-08-19T13:12:07;8.37;;;6.90;;
3278;SDS011;1651;50.940;6.888;2022-08-19T13:14:38;12.17;;;7.10;;
3278;SDS011;1651;50.940;6.888;2022-08-19T13:17:05;8.23;;;6.73;;
3278;SDS011;1651;50.940;6.888;2022-08-19T13:19:32;7.10;;;6.40;;
3278;SDS011;1651;50.940;6.888;2022-08-19T13:21:58;6.87;;;6.23;;
3278;SDS011;1651;50.940;6.888;2022-08-19T13:24:24;7.10;;;6.40;;
3278;SDS011;1651;50.940;6.888;2022-08-19T13:26:51;9.30;;;6.50;;
3278;SDS011;1651;50.940;6.888;2022-08-19T13:29:17;8.37;;;6.90;;
3278;SDS011;1651;50.940;6.888;2022-08-19T13:32:02;8.73;;;7.10;;
3278;SDS011;1651;50.940;6.888;2022-08-19T13:34:47;8.53;;;7.20;;
3278;SDS011;1651;50.940;6.888;2022-08-19T13:37:13;7.17;;;5.70;;
3278;SDS011;1651;50.940;6.888;2022-08-19T13:39:39;9.27;;;7.20;;
3278;SDS011;1651;50.940;6.888;2022-08-19T13:42:05;10.97;;;8.37;;
3278;SDS011;1651;50.940;6.888;2022-08-19T13:44:33;6.53;;;5.90;;
3278;SDS011;1651;50.940;6.888;2022-08-19T13:46:59;11.77;;;8.30;;
3278;SDS011;1651;50.940;6.888;2022-08-19T13:49:28;6.63;;;5.97;;
3278;SDS011;1651;50.940;6.888;2022-08-19T13:51:55;7.17;;;6.47;;
3278;SDS011;1651;50.940;6.888;2022-08-19T13:54:21;10.90;;;7.03;;
3278;SDS011;1651;50.940;6.888;2022-08-19T13:56:47;7.40;;;5.87;;
3278;SDS011;1651;50.940;6.888;2022-08-19T13:59:13;7.33;;;6.37;;
3278;SDS011;1651;50.940;6.888;2022-08-19T14:01:41;6.67;;;5.67;;
3278;SDS011;1651;50.940;6.888;2022-08-19T14:04:08;6.20;;;5.60;;
3278;SDS011;1651;50.940;6.888;2022-08-19T14:06:34;6.30;;;5.70;;
3278;SDS011;1651;50.940;6.888;2022-08-19T14:09:01;8.90;;;6.50;;
3278;SDS011;1651;50.940;6.888;2022-08-19T14:11:29;7.13;;;6.40;;
3278;SDS011;1651;50.940;6.888;2022-08-19T14:13:56;8.10;;;5.77;;
3278;SDS011;1651;50.940;6.888;2022-08-19T14:16:22;7.87;;;5.93;;
3278;SDS011;1651;50.940;6.888;2022-08-19T14:18:49;11.80;;;6.40;;
3278;SDS011;1651;50.940;6.888;2022-08-19T14:21:16;7.03;;;6.33;;
3278;SDS011;1651;50.940;6.888;2022-08-19T14:23:42;6.87;;;6.20;;
3278;SDS011;1651;50.940;6.888;2022-08-19T14:26:11;9.27;;;7.50;;
3278;SDS011;1651;50.940;6.888;2022-08-19T14:28:38;6.20;;;5.23;;
3278;SDS011;1651;50.940;6.888;2022-08-19T14:31:06;8.73;;;6.27;;
3278;SDS011;1651;50.940;6.888;2022-08-19T14:33:33;9.80;;;5.70;;
3278;SDS011;1651;50.940;6.888;2022-08-19T14:35:59;10.40;;;5.60;;
3278;SDS011;1651;50.940;6.888;2022-08-19T14:38:25;7.07;;;6.37;;
3278;SDS011;1651;50.940;6.888;2022-08-19T14:40:51;6.10;;;5.50;;
3278;SDS011;1651;50.940;6.888;2022-08-19T14:43:18;5.77;;;5.27;;
3278;SDS011;1651;50.940;6.888;2022-08-19T14:45:45;5.53;;;4.60;;
3278;SDS011;1651;50.940;6.888;2022-08-19T14:48:11;5.10;;;4.70;;
3278;SDS011;1651;50.940;6.888;2022-08-19T14:50:37;5.00;;;4.50;;
3278;SDS011;1651;50.940;6.888;2022-08-19T14:53:06;5.23;;;4.57;;
3278;SDS011;1651;50.940;6.888;2022-08-19T14:55:32;4.30;;;3.93;;
3278;SDS011;1651;50.940;6.888;2022-08-19T14:57:58;4.33;;;3.70;;
3278;SDS011;1651;50.940;6.888;2022-08-19T15:00:25;4.97;;;4.43;;
3278;SDS011;1651;50.940;6.888;2022-08-19T15:02:51;4.90;;;4.23;;
3278;SDS011;1651;50.940;6.888;2022-08-19T15:05:19;4.73;;;4.27;;
3278;SDS011;1651;50.940;6.888;2022-08-19T15:07:45;4.80;;;4.03;;
3278;SDS011;1651;50.940;6.888;2022-08-19T15:10:12;5.13;;;3.37;;
3278;SDS011;1651;50.940;6.888;2022-08-19T15:12:39;5.83;;;4.27;;
3278;SDS011;1651;50.940;6.888;2022-08-19T15:15:07;4.23;;;3.83;;
3278;SDS011;1651;50.940;6.888;2022-08-19T15:17:34;7.37;;;3.90;;
3278;SDS011;1651;50.940;6.888;2022-08-19T15:20:02;5.30;;;4.43;;
3278;SDS011;1651;50.940;6.888;2022-08-19T15:22:28;3.60;;;3.30;;
3278;SDS011;1651;50.940;6.888;2022-08-19T15:24:54;5.50;;;3.57;;
3278;SDS011;1651;50.940;6.888;2022-08-19T15:27:21;4.63;;;3.87;;
3278;SDS011;1651;50.940;6.888;2022-08-19T15:29:47;5.00;;;3.43;;
3278;SDS011;1651;50.940;6.888;2022-08-19T15:32:13;4.87;;;3.57;;
3278;SDS011;1651;50.940;6.888;2022-08-19T15:34:39;4.33;;;3.30;;
3278;SDS011;1651;50.940;6.888;2022-08-19T15:37:05;3.67;;;3.20;;
3278;SDS011;1651;50.940;6.888;2022-08-19T15:39:31;5.20;;;3.23;;
3278;SDS011;1651;50.940;6.888;2022-08-19T15:41:57;4.80;;;4.40;;
3278;SDS011;1651;50.940;6.888;2022-08-19T15:44:24;3.97;;;3.57;;
3278;SDS011;1651;50.940;6.888;2022-08-19T15:46:51;3.57;;;3.27;;
3278;SDS011;1651;50.940;6.888;2022-08-19T15:49:17;4.77;;;3.50;;
3278;SDS011;1651;50.940;6.888;2022-08-19T15:51:45;8.40;;;2.97;;
3278;SDS011;1651;50.940;6.888;2022-08-19T15:54:14;3.60;;;3.27;;
3278;SDS011;1651;50.940;6.888;2022-08-19T15:56:41;7.73;;;3.73;;
3278;SDS011;1651;50.940;6.888;2022-08-19T15:59:27;3.40;;;3.10;;
3278;SDS011;1651;50.940;6.888;2022-08-19T16:02:11;7.50;;;3.77;;
3278;SDS011;1651;50.940;6.888;2022-08-19T16:04:57;4.53;;;3.63;;
3278;SDS011;1651;50.940;6.888;2022-08-19T16:07:41;4.17;;;3.77;;
3278;SDS011;1651;50.940;6.888;2022-08-19T16:10:08;8.17;;;3.30;;
3278;SDS011;1651;50.940;6.888;2022-08-19T16:12:35;4.70;;;2.97;;
3278;SDS011;1651;50.940;6.888;2022-08-19T16:15:03;4.53;;;3.90;;
3278;SDS011;1651;50.940;6.888;2022-08-19T16:17:29;5.30;;;3.33;;
3278;SDS011;1651;50.940;6.888;2022-08-19T16:19:55;5.70;;;3.57;;
3278;SDS011;1651;50.940;6.888;2022-08-19T16:22:27;8.93;;;3.53;;
3278;SDS011;1651;50.940;6.888;2022-08-19T16:24:53;4.20;;;2.97;;
3278;SDS011;1651;50.940;6.888;2022-08-19T16:27:19;6.83;;;3.50;;
3278;SDS011;1651;50.940;6.888;2022-08-19T16:29:46;2.70;;;2.50;;
3278;SDS011;1651;50.940;6.888;2022-08-19T16:32:12;2.63;;;2.43;;
3278;SDS011;1651;50.940;6.888;2022-08-19T16:34:39;3.43;;;2.30;;
3278;SDS011;1651;50.940;6.888;2022-08-19T16:37:05;7.50;;;2.60;;
3278;SDS011;1651;50.940;6.888;2022-08-19T16:39:31;9.03;;;2.67;;
3278;SDS011;1651;50.940;6.888;2022-08-19T16:41:58;2.60;;;2.33;;
3278;SDS011;1651;50.940;6.888;2022-08-19T16:44:25;2.83;;;2.17;;
3278;SDS011;1651;50.940;6.888;2022-08-19T16:46:51;2.23;;;2.03;;
3278;SDS011;1651;50.940;6.888;2022-08-19T16:49:17;4.67;;;2.13;;
3278;SDS011;1651;50.940;6.888;2022-08-19T16:51:45;2.20;;;1.97;;
3278;SDS011;1651;50.940;6.888;2022-08-19T16:54:17;2.77;;;2.47;;
3278;SDS011;1651;50.940;6.888;2022-08-19T16:56:43;3.40;;;2.33;;
3278;SDS011;1651;50.940;6.888;2022-08-19T16:59:10;7.00;;;2.60;;
3278;SDS011;1651;50.940;6.888;2022-08-19T17:01:43;6.10;;;2.10;;
3278;SDS011;1651;50.940;6.888;2022-08-19T17:04:10;5.20;;;2.73;;
3278;SDS011;1651;50.940;6.888;2022-08-19T17:06:41;3.77;;;2.60;;
3278;SDS011;1651;50.940;6.888;2022-08-19T17:09:33;4.23;;;2.03;;
3278;SDS011;1651;50.940;6.888;2022-08-19T17:21:02;6.10;;;2.57;;
3278;SDS011;1651;50.940;6.888;2022-08-19T17:23:29;3.20;;;2.10;;
3278;SDS011;1651;50.940;6.888;2022-08-19T17:26:14;2.70;;;2.50;;
3278;SDS011;1651;50.940;6.888;2022-08-19T17:28:47;3.37;;;2.90;;
3278;SDS011;1651;50.940;6.888;2022-08-19T17:31:16;4.00;;;2.67;;
3278;SDS011;1651;50.940;6.888;2022-08-19T17:36:46;6.30;;;3.03;;
3278;SDS011;1651;50.940;6.888;2022-08-19T17:39:26;3.90;;;3.07;;
3278;SDS011;1651;50.940;6.888;2022-08-19T17:54:46;4.40;;;3.20;;
3278;SDS011;1651;50.940;6.888;2022-08-19T18:00:54;3.57;;;3.27;;
3278;SDS011;1651;50.940;6.888;2022-08-19T18:09:39;4.57;;;2.97;;
3278;SDS011;1651;50.940;6.888;2022-08-19T18:12:06;6.97;;;3.20;;
3278;SDS011;1651;50.940;6.888;2022-08-19T18:14:35;6.53;;;3.57;;
3278;SDS011;1651;50.940;6.888;2022-08-19T18:17:04;5.57;;;3.47;;
3278;SDS011;1651;50.940;6.888;2022-08-19T18:19:33;5.30;;;3.00;;
3278;SDS011;1651;50.940;6.888;2022-08-19T18:21:59;8.63;;;3.23;;
3278;SDS011;1651;50.940;6.888;2022-08-19T18:24:29;6.00;;;3.30;;
3278;SDS011;1651;50.940;6.888;2022-08-19T18:26:55;10.40;;;4.17;;
3278;SDS011;1651;50.940;6.888;2022-08-19T18:29:21;4.77;;;3.03;;
3278;SDS011;1651;50.940;6.888;2022-08-19T18:31:47;6.37;;;3.60;;
3278;SDS011;1651;50.940;6.888;2022-08-19T18:34:14;4.17;;;3.87;;
3278;SDS011;1651;50.940;6.888;2022-08-19T18:36:40;5.13;;;3.97;;
3278;SDS011;1651;50.940;6.888;2022-08-19T18:39:06;4.50;;;4.10;;
3278;SDS011;1651;50.940;6.888;2022-08-19T18:41:51;5.33;;;4.03;;
3278;SDS011;1651;50.940;6.888;2022-08-19T18:44:38;4.17;;;3.77;;
3278;SDS011;1651;50.940;6.888;2022-08-19T18:47:23;3.40;;;3.07;;
3278;SDS011;1651;50.940;6.888;2022-08-19T18:50:07;5.43;;;3.30;;
3278;SDS011;1651;50.940;6.888;2022-08-19T18:52:35;3.50;;;2.83;;
3278;SDS011;1651;50.940;6.888;2022-08-19T18:55:01;5.27;;;3.57;;
3278;SDS011;1651;50.940;6.888;2022-08-19T18:57:28;3.20;;;2.90;;
3278;SDS011;1651;50.940;6.888;2022-08-19T18:59:54;4.47;;;3.53;;
3278;SDS011;1651;50.940;6.888;2022-08-19T19:02:22;4.10;;;3.40;;
3278;SDS011;1651;50.940;6.888;2022-08-19T19:04:51;4.23;;;3.17;;
3278;SDS011;1651;50.940;6.888;2022-08-19T19:07:19;2.90;;;2.70;;
3278;SDS011;1651;50.940;6.888;2022-08-19T19:09:45;3.53;;;3.07;;
3278;SDS011;1651;50.940;6.888;2022-08-19T19:14:47;3.77;;;3.40;;
3278;SDS011;1651;50.940;6.888;2022-08-19T19:17:15;3.17;;;2.90;;
3278;SDS011;1651;50.940;6.888;2022-08-19T19:19:42;6.13;;;3.83;;
3278;SDS011;1651;50.940;6.888;2022-08-19T19:22:10;7.77;;;3.03;;
3278;SDS011;1651;50.940;6.888;2022-08-19T19:24:37;2.57;;;2.37;;
3278;SDS011;1651;50.940;6.888;2022-08-19T19:27:04;3.00;;;2.30;;
3278;SDS011;1651;50.940;6.888;2022-08-19T19:29:35;3.10;;;2.20;;
3278;SDS011;1651;50.940;6.888;2022-08-19T19:32:05;5.20;;;2.07;;
3278;SDS011;1651;50.940;6.888;2022-08-19T19:34:37;3.33;;;2.60;;
3278;SDS011;1651;50.940;6.888;2022-08-19T19:37:05;2.70;;;2.13;;
3278;SDS011;1651;50.940;6.888;2022-08-19T19:39:42;2.50;;;2.20;;
3278;SDS011;1651;50.940;6.888;2022-08-19T19:42:11;3.10;;;2.50;;
3278;SDS011;1651;50.940;6.888;2022-08-19T19:44:38;2.97;;;2.20;;
3278;SDS011;1651;50.940;6.888;2022-08-19T19:47:04;2.70;;;2.07;;
3278;SDS011;1651;50.940;6.888;2022-08-19T19:49:32;2.83;;;2.37;;
3278;SDS011;1651;50.940;6.888;2022-08-19T19:51:58;1.90;;;1.60;;
3278;SDS011;1651;50.940;6.888;2022-08-19T19:54:25;2.87;;;2.57;;
3278;SDS011;1651;50.940;6.888;2022-08-19T19:56:59;3.20;;;1.90;;
3278;SDS011;1651;50.940;6.888;2022-08-19T19:59:30;3.20;;;2.70;;
3278;SDS011;1651;50.940;6.888;2022-08-19T20:18:11;3.30;;;2.37;;
3278;SDS011;1651;50.940;6.888;2022-08-19T20:20:38;2.83;;;2.30;;
3278;SDS011;1651;50.940;6.888;2022-08-19T20:23:15;2.53;;;2.30;;
3278;SDS011;1651;50.940;6.888;2022-08-19T20:25:43;3.50;;;2.40;;
3278;SDS011;1651;50.940;6.888;2022-08-19T20:28:11;3.90;;;2.37;;
3278;SDS011;1651;50.940;6.888;2022-08-19T20:30:37;4.47;;;3.07;;
3278;SDS011;1651;50.940;6.888;2022-08-19T20:33:09;2.67;;;2.20;;
3278;SDS011;1651;50.940;6.888;2022-08-19T20:35:37;2.90;;;1.90;;
3278;SDS011;1651;50.940;6.888;2022-08-19T20:38:03;2.97;;;2.67;;
3278;SDS011;1651;50.940;6.888;2022-08-19T20:40:42;4.23;;;2.90;;
3278;SDS011;1651;50.940;6.888;2022-08-19T20:45:44;3.50;;;2.70;;
3278;SDS011;1651;50.940;6.888;2022-08-19T20:48:10;2.90;;;2.60;;
3278;SDS011;1651;50.940;6.888;2022-08-19T20:50:37;3.17;;;2.47;;
3278;SDS011;1651;50.940;6.888;2022-08-19T20:53:16;3.67;;;2.57;;
3278;SDS011;1651;50.940;6.888;2022-08-19T20:58:17;3.53;;;2.70;;
3278;SDS011;1651;50.940;6.888;2022-08-19T21:03:28;3.77;;;2.83;;
3278;SDS011;1651;50.940;6.888;2022-08-19T21:05:56;2.50;;;2.20;;
3278;SDS011;1651;50.940;6.888;2022-08-19T21:13:35;5.07;;;2.90;;
3278;SDS011;1651;50.940;6.888;2022-08-19T21:16:06;2.40;;;2.20;;